Main page
METAR-TAF:

METAR-TAF

Airports :

Zvartnots International Airport

Yerevan, Armenia

latitude: 40-08-50N, longitude: 044-23-45E, elevation: 865 m

Current weather observation

The report was made 26 minutes ago, at 21:30 UTC
Calm wind
Temperature 13°C
Humidity 82%
Pressure 1020 hPa
Visibility 10 km or more
Few clouds at a height of 4300 ft

METAR: UDYZ 212130Z 00000KT 9999 FEW043 13/10 Q1020 R09/010070 NOSIG

Time: 01:56 (21:56 UTC)

Forecast

The report was made 4 hours and 54 minutes ago, at 17:02 UTC
Forecast valid from 21 at 18 UTC to 22 at 18 UTC
Wind 6 kt from the East/Northeast
Visibility 10 km or more
Few clouds at a height of 4000 ft
Temporary
from 21 at 18 UTC to 21 at 21 UTC
Wind 16 kt from variable directions
Broken clouds at a height of 3000 ft, Cumulonimbus.
light rain showers

TAF: UDYZ 211702Z 2118/2218 06006KT 9999 FEW040 TEMPO 2118/2121 VRB16KT -SHRA BKN030CB

Weather observations and forecasts of more than 4000 airports (METAR and TAF reports).

The available stations are represented by yellow and red dots on the map.

Hover mouse over dot to see the name of the station.

Then click to see weather observations and forecasts.

To change the map : click on the green buttons with a black cross to zoom in, on the green button with a dash to zoom out, or on the green arrows for adjacent maps.


METAR-TAF: